createdAt,value
2019-02-26T00:01:39.527Z,65.67
2019-02-26T00:04:10.758Z,65.91
2019-02-26T00:06:42.399Z,66.07
2019-02-26T00:09:18.168Z,66.08
2019-02-26T00:11:47.146Z,65.74
2019-02-26T00:14:20.374Z,66.00
2019-02-26T00:16:51.376Z,66.29
2019-02-26T00:19:22.146Z,66.03
2019-02-26T00:21:54.356Z,65.70
2019-02-26T00:24:25.633Z,65.76
2019-02-26T00:26:58.507Z,65.66
2019-02-26T00:29:32.034Z,65.99
2019-02-26T00:32:03.153Z,66.04
2019-02-26T00:34:34.665Z,65.92
2019-02-26T00:37:08.485Z,66.15
2019-02-26T00:39:39.658Z,65.93
2019-02-26T00:42:12.640Z,66.22
2019-02-26T00:44:43.893Z,66.31
2019-02-26T00:47:15.439Z,66.86
2019-02-26T00:49:48.403Z,66.91
2019-02-26T00:52:21.413Z,66.83
2019-02-26T00:54:53.611Z,66.94
2019-02-26T00:57:27.325Z,67.21
2019-02-26T01:00:00.719Z,67.58
2019-02-26T01:02:32.737Z,67.59
2019-02-26T01:05:06.306Z,67.72
2019-02-26T01:07:38.504Z,67.77
2019-02-26T01:10:11.649Z,68.03
2019-02-26T01:12:43.360Z,68.09
2019-02-26T01:15:16.547Z,68.29
2019-02-26T01:17:47.682Z,68.76
2019-02-26T01:20:19.634Z,68.85
2019-02-26T01:22:51.201Z,68.82
2019-02-26T01:25:22.922Z,68.77
2019-02-26T01:27:56.269Z,68.41
2019-02-26T01:30:29.404Z,68.92
2019-02-26T01:33:03.385Z,68.69
2019-02-26T01:35:35.590Z,69.15
2019-02-26T01:38:07.379Z,69.20
2019-02-26T01:40:41.489Z,69.17
2019-02-26T01:43:10.894Z,69.17
2019-02-26T01:45:44.007Z,68.72
2019-02-26T01:48:18.386Z,68.72
2019-02-26T01:50:49.037Z,68.98
2019-02-26T01:53:21.470Z,68.90
2019-02-26T01:55:53.360Z,69.00
2019-02-26T01:58:24.817Z,69.37
2019-02-26T02:00:57.525Z,69.48
2019-02-26T02:03:32.505Z,69.33
2019-02-26T02:06:01.517Z,69.43
2019-02-26T02:08:32.246Z,69.43
2019-02-26T02:11:04.823Z,69.57
2019-02-26T02:13:38.508Z,69.37
2019-02-26T02:16:09.044Z,69.46
2019-02-26T02:18:43.930Z,69.73
2019-02-26T02:21:14.625Z,69.53
2019-02-26T02:23:47.061Z,69.38
2019-02-26T02:26:18.956Z,69.88
2019-02-26T02:28:50.433Z,69.68
2019-02-26T02:31:21.931Z,69.61
2019-02-26T02:33:54.131Z,69.55
2019-02-26T02:36:26.464Z,69.59
2019-02-26T02:38:57.855Z,69.36
2019-02-26T02:41:29.093Z,69.76
2019-02-26T02:44:00.341Z,69.57
2019-02-26T02:46:31.541Z,69.84
2019-02-26T02:49:04.732Z,69.67
2019-02-26T02:51:37.158Z,69.62
2019-02-26T02:54:12.183Z,69.90
2019-02-26T02:56:44.383Z,69.96
2019-02-26T02:59:16.549Z,69.98
2019-02-26T03:01:51.325Z,70.06
2019-02-26T03:04:22.177Z,69.99
2019-02-26T03:06:55.584Z,69.86
2019-02-26T03:09:27.536Z,70.14
2019-02-26T03:11:59.092Z,70.31
2019-02-26T03:14:33.051Z,70.23
2019-02-26T03:17:05.655Z,70.33
2019-02-26T03:19:38.491Z,70.21
2019-02-26T03:22:12.686Z,70.41
2019-02-26T03:24:43.306Z,70.53
2019-02-26T03:27:14.444Z,70.66
2019-02-26T03:29:47.225Z,70.10
2019-02-26T03:32:18.987Z,70.64
2019-02-26T03:34:50.539Z,70.80
2019-02-26T03:37:23.273Z,71.12
2019-02-26T03:39:55.235Z,71.47
2019-02-26T03:42:27.345Z,71.87
2019-02-26T03:44:59.639Z,72.17
2019-02-26T03:47:31.173Z,72.57
2019-02-26T03:50:02.310Z,72.60
2019-02-26T03:52:33.688Z,72.64
2019-02-26T03:55:08.884Z,72.57
2019-02-26T03:57:43.638Z,73.09
2019-02-26T04:00:19.910Z,73.08
2019-02-26T04:02:52.138Z,72.99
2019-02-26T04:05:25.140Z,72.87
2019-02-26T04:07:58.945Z,73.30
2019-02-26T04:10:29.987Z,73.34
2019-02-26T04:13:01.539Z,73.15
2019-02-26T04:15:35.649Z,73.25
2019-02-26T04:18:05.569Z,72.97
2019-02-26T04:20:36.436Z,72.97
2019-02-26T04:23:08.956Z,73.10
2019-02-26T04:26:15.602Z,73.28
2019-02-26T04:28:47.926Z,73.36
2019-02-26T04:31:31.356Z,72.95
2019-02-26T04:34:08.456Z,73.19
2019-02-26T04:37:04.655Z,73.34
2019-02-26T04:39:50.252Z,73.34
2019-02-26T04:42:35.225Z,73.32
2019-02-26T04:45:13.016Z,72.65
2019-02-26T04:47:56.987Z,72.55
2019-02-26T04:50:28.894Z,72.24
2019-02-26T04:53:04.436Z,72.23
2019-02-26T04:55:36.087Z,72.04
2019-02-26T04:58:05.830Z,71.66
2019-02-26T05:00:38.666Z,71.64
2019-02-26T05:03:11.860Z,71.77
2019-02-26T05:05:43.050Z,72.00
2019-02-26T05:08:14.810Z,71.69
2019-02-26T05:10:49.843Z,71.42
2019-02-26T05:13:21.984Z,71.48
2019-02-26T05:15:53.574Z,71.67
2019-02-26T05:18:26.070Z,71.43
2019-02-26T05:20:59.193Z,71.28
2019-02-26T05:23:33.014Z,71.13
2019-02-26T05:28:41.813Z,71.55
2019-02-26T05:31:15.212Z,71.02
2019-02-26T05:33:49.572Z,70.37
2019-02-26T05:36:20.215Z,69.82
2019-02-26T05:38:54.053Z,70.15
2019-02-26T05:41:24.234Z,70.30
2019-02-26T05:43:58.366Z,70.58
2019-02-26T05:46:29.592Z,70.65
2019-02-26T05:49:02.906Z,70.58
2019-02-26T05:51:36.008Z,70.55
2019-02-26T05:54:08.994Z,69.51
2019-02-26T05:56:43.373Z,69.26
2019-02-26T05:59:15.475Z,69.02
2019-02-26T06:01:49.459Z,68.72
2019-02-26T06:04:20.811Z,68.52
2019-02-26T06:06:55.504Z,68.46
2019-02-26T06:09:27.976Z,68.09
2019-02-26T06:11:58.746Z,67.97
2019-02-26T06:14:32.756Z,67.47
2019-02-26T06:17:03.493Z,67.39
2019-02-26T06:19:37.730Z,67.53
2019-02-26T06:22:11.600Z,67.80
2019-02-26T06:24:41.929Z,67.85
2019-02-26T06:27:15.994Z,68.02
2019-02-26T06:29:46.509Z,68.62
2019-02-26T06:32:18.021Z,68.32
2019-02-26T06:34:49.169Z,68.55
2019-02-26T06:37:23.368Z,68.96
2019-02-26T06:39:55.665Z,68.02
2019-02-26T06:42:30.671Z,67.24
2019-02-26T06:45:03.416Z,66.86
2019-02-26T06:47:34.196Z,66.69
2019-02-26T06:50:10.543Z,66.72
2019-02-26T06:52:43.011Z,66.11
2019-02-26T06:55:15.923Z,66.47
2019-02-26T06:57:47.741Z,66.68
2019-02-26T07:00:22.291Z,66.59
2019-02-26T07:02:52.864Z,66.03
2019-02-26T07:05:24.649Z,65.60
2019-02-26T07:07:57.047Z,66.15
2019-02-26T07:10:31.410Z,65.30
2019-02-26T07:13:04.307Z,65.27
2019-02-26T07:15:35.520Z,65.44
2019-02-26T07:18:09.485Z,65.24
2019-02-26T07:20:46.520Z,65.40
2019-02-26T07:23:15.525Z,65.09
2019-02-26T07:25:46.847Z,65.42
2019-02-26T07:28:20.060Z,65.12
2019-02-26T07:30:50.558Z,65.55
2019-02-26T07:33:21.433Z,65.31
2019-02-26T07:35:54.409Z,65.29
2019-02-26T07:38:27.567Z,65.53
2019-02-26T07:40:59.574Z,65.60
2019-02-26T07:43:31.701Z,65.72
2019-02-26T07:46:03.053Z,65.87
2019-02-26T07:48:34.610Z,65.80
2019-02-26T07:51:05.475Z,65.37
2019-02-26T07:53:36.992Z,65.60
2019-02-26T07:56:08.740Z,65.80
2019-02-26T07:58:41.210Z,65.95
2019-02-26T08:01:13.393Z,66.19
2019-02-26T08:03:46.974Z,66.30
2019-02-26T08:06:18.852Z,65.92
2019-02-26T08:08:50.098Z,65.41
2019-02-26T08:11:21.648Z,65.10
2019-02-26T08:13:54.388Z,64.54
2019-02-26T08:16:27.684Z,64.12
2019-02-26T08:19:01.414Z,63.87
2019-02-26T08:21:32.772Z,63.96
2019-02-26T08:24:04.945Z,63.48
2019-02-26T08:26:38.122Z,63.75
2019-02-26T08:29:11.900Z,63.92
2019-02-26T08:31:46.696Z,64.16
2019-02-26T08:34:15.874Z,64.99
2019-02-26T08:36:46.952Z,65.04
2019-02-26T08:39:18.146Z,65.10
2019-02-26T08:41:59.319Z,65.07
2019-02-26T08:44:30.273Z,64.80
2019-02-26T08:47:06.169Z,64.02
2019-02-26T08:49:35.944Z,63.93
2019-02-26T08:52:08.098Z,63.82
2019-02-26T08:54:39.176Z,63.84
2019-02-26T08:57:11.979Z,63.69
2019-02-26T08:59:47.286Z,64.28
2019-02-26T09:02:18.956Z,64.81
2019-02-26T09:04:50.680Z,64.03
2019-02-26T09:07:23.810Z,63.66
2019-02-26T09:09:57.459Z,65.43
2019-02-26T09:12:28.194Z,64.54
2019-02-26T09:14:59.752Z,63.83
2019-02-26T09:17:32.484Z,63.49
2019-02-26T09:20:09.307Z,63.97
2019-02-26T09:22:36.893Z,63.86
2019-02-26T09:25:09.216Z,63.90
2019-02-26T09:27:43.067Z,63.18
2019-02-26T09:30:16.182Z,63.67
2019-02-26T09:32:47.480Z,64.32
2019-02-26T09:35:24.681Z,64.12
2019-02-26T09:37:55.513Z,64.06
2019-02-26T09:40:28.866Z,63.98
2019-02-26T09:43:00.114Z,64.49
2019-02-26T09:45:31.481Z,64.51
2019-02-26T09:48:02.354Z,64.03
2019-02-26T09:50:33.296Z,65.25
2019-02-26T09:53:04.713Z,65.60
2019-02-26T09:55:35.648Z,64.87
2019-02-26T09:58:06.619Z,65.50
2019-02-26T10:00:37.751Z,66.94
2019-02-26T10:03:11.073Z,66.68
2019-02-26T10:05:42.986Z,67.14
2019-02-26T10:08:14.639Z,67.26
2019-02-26T10:10:45.886Z,67.73
2019-02-26T10:13:18.280Z,68.52
2019-02-26T10:15:51.146Z,68.52
2019-02-26T10:18:23.841Z,67.38
2019-02-26T10:20:55.676Z,67.30
2019-02-26T10:23:29.050Z,65.70
2019-02-26T10:26:01.062Z,66.45
2019-02-26T10:28:37.329Z,66.07
2019-02-26T10:31:09.703Z,66.04
2019-02-26T10:33:43.171Z,66.61
2019-02-26T10:36:16.520Z,66.96
2019-02-26T10:38:50.330Z,67.70
2019-02-26T10:41:21.615Z,68.31
2019-02-26T10:43:53.267Z,68.62
2019-02-26T10:46:24.623Z,69.30
2019-02-26T10:48:56.281Z,68.87
2019-02-26T10:51:27.622Z,70.46
2019-02-26T10:54:00.006Z,72.41
2019-02-26T10:56:36.845Z,72.99
2019-02-26T10:59:08.660Z,75.93
2019-02-26T11:01:39.316Z,75.66
2019-02-26T11:04:11.017Z,77.11
2019-02-26T11:06:44.181Z,76.40
2019-02-26T11:09:17.545Z,76.14
2019-02-26T11:11:47.019Z,75.62
2019-02-26T11:14:19.447Z,75.69
2019-02-26T11:16:50.747Z,75.98
2019-02-26T11:19:21.796Z,76.56
2019-02-26T11:21:55.968Z,75.55
2019-02-26T11:24:28.198Z,76.16
2019-02-26T11:26:59.691Z,75.52
2019-02-26T11:29:34.063Z,75.46
2019-02-26T11:32:07.809Z,75.63
2019-02-26T11:34:39.368Z,75.84
2019-02-26T11:37:10.926Z,75.76
2019-02-26T11:39:42.270Z,76.60
2019-02-26T11:42:15.857Z,76.97
2019-02-26T11:44:46.708Z,77.03
2019-02-26T11:47:18.354Z,76.82
2019-02-26T11:49:50.448Z,75.68
2019-02-26T11:52:21.726Z,76.33
2019-02-26T11:54:52.710Z,76.90
2019-02-26T11:57:24.470Z,76.55
2019-02-26T11:59:57.051Z,76.81
2019-02-26T12:02:33.387Z,76.83
2019-02-26T12:05:02.882Z,77.76
2019-02-26T12:07:35.905Z,78.14
2019-02-26T12:10:14.750Z,78.00
2019-02-26T12:12:48.323Z,77.72
2019-02-26T12:15:19.059Z,77.18
2019-02-26T12:17:51.749Z,78.05
2019-02-26T12:20:24.310Z,76.76
2019-02-26T12:22:55.816Z,77.63
2019-02-26T12:25:27.108Z,76.64
2019-02-26T12:28:00.174Z,76.86
2019-02-26T12:30:34.479Z,76.07
2019-02-26T12:33:07.672Z,76.54
2019-02-26T12:35:40.618Z,76.69
2019-02-26T12:38:18.248Z,76.03
2019-02-26T12:40:47.164Z,76.30
2019-02-26T12:43:19.288Z,75.56
2019-02-26T12:45:52.016Z,76.56
2019-02-26T12:48:23.480Z,77.02
2019-02-26T12:50:55.641Z,76.34
2019-02-26T12:53:29.035Z,77.53
2019-02-26T12:56:09.014Z,77.68
2019-02-26T12:58:41.111Z,78.58
2019-02-26T13:01:13.365Z,78.72
2019-02-26T13:03:47.282Z,78.29
2019-02-26T13:06:19.479Z,78.70
2019-02-26T13:08:51.360Z,78.10
2019-02-26T13:11:24.880Z,77.66
2019-02-26T13:13:56.222Z,78.52
2019-02-26T13:16:27.933Z,79.01
2019-02-26T13:19:01.562Z,78.98
2019-02-26T13:21:32.401Z,78.94
2019-02-26T13:24:11.821Z,79.37
2019-02-26T13:26:37.037Z,79.04
2019-02-26T13:29:09.117Z,79.61
2019-02-26T13:31:43.259Z,80.12
2019-02-26T13:34:14.225Z,80.28
2019-02-26T13:36:48.985Z,79.70
2019-02-26T13:39:26.120Z,79.78
2019-02-26T13:41:58.475Z,79.49
2019-02-26T13:44:25.582Z,78.42
2019-02-26T13:46:57.348Z,79.35
2019-02-26T13:49:28.583Z,80.17
2019-02-26T13:52:00.141Z,80.43
2019-02-26T16:12:03.698Z,84.00
2019-02-26T16:14:35.264Z,84.24
2019-02-26T16:17:07.079Z,82.78
2019-02-26T16:19:38.976Z,82.95
2019-02-26T16:22:10.638Z,83.48
2019-02-26T16:24:42.383Z,83.28
2019-02-26T16:27:13.278Z,83.60
2019-02-26T16:29:46.135Z,83.00
2019-02-26T16:32:20.417Z,83.60
2019-02-26T16:34:53.509Z,83.99
2019-02-26T16:37:29.567Z,82.88
2019-02-26T16:40:02.654Z,83.06
2019-02-26T16:42:35.231Z,83.76
2019-02-26T16:45:09.754Z,84.39
2019-02-26T16:47:42.604Z,83.58
2019-02-26T16:50:19.823Z,83.75
2019-02-26T16:52:51.485Z,83.41
2019-02-26T16:55:22.244Z,83.49
2019-02-26T16:57:53.249Z,83.75
2019-02-26T17:00:32.608Z,83.88
2019-02-26T17:03:04.572Z,83.69
2019-02-26T17:05:35.907Z,83.49
2019-02-26T17:08:07.473Z,83.67
2019-02-26T17:10:38.698Z,83.30
2019-02-26T17:13:12.660Z,83.75
2019-02-26T17:15:43.846Z,83.96
2019-02-26T17:18:16.168Z,82.97
2019-02-26T17:20:49.934Z,83.81
2019-02-26T17:23:21.473Z,82.95
2019-02-26T17:25:52.032Z,83.33
2019-02-26T17:28:25.192Z,83.23
2019-02-26T17:30:57.776Z,82.79
2019-02-26T17:33:29.221Z,84.23
2019-02-26T17:36:02.007Z,83.66
2019-02-26T17:38:33.967Z,83.32
2019-02-26T17:41:05.630Z,82.70
2019-02-26T17:43:39.344Z,83.62
2019-02-26T17:46:10.997Z,83.17
2019-02-26T17:48:43.669Z,83.38
2019-02-26T17:51:18.761Z,83.93
2019-02-26T17:53:49.787Z,83.57
2019-02-26T17:56:20.972Z,83.23
2019-02-26T17:58:52.526Z,83.54
2019-02-26T18:01:24.225Z,83.22
2019-02-26T18:03:58.719Z,83.55
2019-02-26T18:06:30.161Z,83.71
2019-02-26T18:09:01.755Z,83.82
2019-02-26T18:11:36.541Z,84.08
2019-02-26T18:14:09.631Z,84.11
2019-02-26T18:16:41.686Z,83.99
2019-02-26T18:19:16.206Z,84.24
2019-02-26T18:21:47.386Z,84.33
2019-02-26T18:24:19.007Z,84.51
2019-02-26T18:26:51.903Z,84.33
2019-02-26T18:29:25.658Z,84.25
2019-02-26T18:31:57.350Z,84.11
2019-02-26T18:34:29.004Z,83.84
2019-02-26T18:36:59.769Z,84.13
2019-02-26T18:39:32.495Z,83.63
2019-02-26T18:42:07.597Z,83.37
2019-02-26T18:44:36.956Z,83.44
2019-02-26T18:47:09.016Z,83.67
2019-02-26T18:49:40.064Z,83.47
2019-02-26T18:52:15.844Z,83.72
2019-02-26T18:54:48.906Z,83.97
2019-02-26T18:57:20.354Z,83.63
2019-02-26T18:59:53.599Z,83.41
2019-02-26T19:02:25.269Z,83.57
2019-02-26T19:04:57.528Z,83.36
2019-02-26T19:07:33.798Z,83.31
2019-02-26T19:10:08.998Z,83.19
2019-02-26T19:12:41.369Z,83.10
2019-02-26T19:15:19.774Z,83.03
2019-02-26T19:17:53.288Z,83.07
2019-02-26T19:20:29.557Z,83.17
2019-02-26T19:23:02.092Z,82.91
2019-02-26T19:25:33.658Z,83.16
2019-02-26T19:28:05.510Z,83.09
2019-02-26T19:30:38.806Z,83.35
2019-02-26T19:33:10.448Z,82.98
2019-02-26T19:35:42.008Z,82.73
2019-02-26T19:38:12.973Z,82.76
2019-02-26T19:40:50.209Z,82.65
2019-02-26T19:43:23.781Z,82.57
2019-02-26T19:45:55.692Z,82.88
2019-02-26T19:48:30.390Z,82.94
2019-02-26T19:50:59.922Z,83.13
2019-02-26T19:53:34.429Z,82.98
2019-02-26T19:56:04.184Z,82.45
2019-02-26T19:58:36.008Z,82.23
2019-02-26T20:01:07.662Z,82.52
2019-02-26T20:03:40.329Z,82.42
2019-02-26T20:06:12.403Z,82.37
2019-02-26T20:08:43.886Z,82.20
2019-02-26T20:11:15.729Z,82.43
2019-02-26T20:13:47.586Z,81.81
2019-02-26T20:16:19.143Z,81.61
2019-02-26T20:18:52.188Z,81.79
2019-02-26T20:21:23.668Z,81.75
2019-02-26T20:23:55.328Z,81.23
2019-02-26T20:26:25.987Z,81.81
2019-02-26T20:28:56.887Z,81.44
2019-02-26T20:31:28.918Z,81.25
2019-02-26T20:34:00.093Z,81.42
2019-02-26T20:36:33.696Z,81.72
2019-02-26T20:39:07.992Z,81.75
2019-02-26T20:41:39.972Z,81.53
2019-02-26T20:44:11.229Z,81.82
2019-02-26T20:46:42.781Z,81.88
2019-02-26T20:49:13.920Z,81.60
2019-02-26T20:51:44.684Z,81.88
2019-02-26T20:54:17.171Z,81.61
2019-02-26T20:56:48.374Z,81.46
2019-02-26T20:59:19.244Z,81.67
2019-02-26T21:01:50.661Z,81.70
2019-02-26T21:04:21.801Z,81.70
2019-02-26T21:06:52.668Z,81.90
2019-02-26T21:09:23.884Z,81.74
2019-02-26T21:11:55.836Z,81.66
2019-02-26T21:14:27.600Z,81.64
2019-02-26T21:16:58.337Z,81.47
2019-02-26T21:19:29.371Z,81.93
2019-02-26T21:22:01.028Z,81.99
2019-02-26T21:24:34.666Z,82.24
2019-02-26T21:27:05.264Z,82.06
2019-02-26T21:29:38.929Z,82.10
2019-02-26T21:32:09.805Z,81.91
2019-02-26T21:34:42.887Z,81.78
2019-02-26T21:37:14.137Z,82.13
2019-02-26T21:39:44.898Z,82.06
2019-02-26T21:42:16.116Z,82.32
2019-02-26T21:44:47.663Z,82.38
2019-02-26T21:47:20.284Z,82.11
2019-02-26T21:49:53.558Z,82.24
2019-02-26T21:52:25.705Z,82.24
2019-02-26T21:54:58.192Z,82.62
2019-02-26T21:57:29.937Z,82.76
2019-02-26T22:00:05.130Z,84.25
2019-02-26T22:02:36.717Z,84.37
2019-02-26T22:05:09.796Z,84.81
2019-02-26T22:07:40.956Z,84.28
2019-02-26T22:10:14.973Z,84.05
2019-02-26T22:12:46.010Z,83.40
2019-02-26T22:15:18.171Z,83.52
2019-02-26T22:17:48.936Z,83.86
2019-02-26T22:20:33.005Z,83.22
2019-02-26T22:22:54.873Z,82.89
2019-02-26T22:25:26.227Z,83.20
2019-02-26T22:27:57.368Z,82.29
2019-02-26T22:30:28.233Z,83.03
2019-02-26T22:32:59.343Z,82.31
2019-02-26T22:35:30.110Z,82.44
2019-02-26T22:38:01.222Z,82.61
2019-02-26T22:40:34.217Z,82.48
2019-02-26T22:43:05.285Z,82.67
2019-02-26T22:45:36.117Z,83.16
2019-02-26T22:48:08.646Z,82.73
2019-02-26T22:50:39.906Z,83.06
2019-02-26T22:53:11.355Z,83.05
2019-02-26T22:55:42.025Z,82.86
2019-02-26T22:58:13.028Z,83.47
2019-02-26T23:00:53.694Z,83.01
2019-02-26T23:03:26.579Z,84.28
2019-02-26T23:05:59.023Z,83.71
2019-02-26T23:08:30.905Z,83.96
2019-02-26T23:11:02.379Z,84.27
2019-02-26T23:13:34.201Z,84.24
2019-02-26T23:16:05.774Z,84.09
2019-02-26T23:18:37.435Z,84.04
2019-02-26T23:21:08.194Z,84.16
2019-02-26T23:23:39.303Z,84.16
2019-02-26T23:26:10.651Z,85.06
2019-02-26T23:28:42.409Z,85.15
2019-02-26T23:31:13.964Z,85.09
2019-02-26T23:33:48.161Z,85.37
2019-02-26T23:36:17.885Z,85.37
2019-02-26T23:38:49.349Z,84.96
2019-02-26T23:41:20.474Z,85.09
2019-02-26T23:43:51.825Z,85.58
2019-02-26T23:46:22.541Z,85.90
2019-02-26T23:48:53.599Z,85.57
2019-02-26T23:51:24.823Z,85.96
2019-02-26T23:53:56.396Z,86.10
2019-02-26T23:56:28.097Z,86.18
2019-02-26T23:59:04.120Z,86.22
